sensor_id;sensor_type;location;lat;lon;timestamp;pressure;altitude;pressure_sealevel;temperature;humidity
71964;BME280;59834;52.124;5.422;2022-08-03T00:02:14;101556.75;;;19.71;78.78
71964;BME280;59834;52.124;5.422;2022-08-03T00:04:41;101562.31;;;19.68;79.15
71964;BME280;59834;52.124;5.422;2022-08-03T00:07:08;101559.00;;;19.66;78.89
71964;BME280;59834;52.124;5.422;2022-08-03T00:09:35;101557.31;;;19.65;79.27
71964;BME280;59834;52.124;5.422;2022-08-03T00:12:02;101559.25;;;19.63;78.98
71964;BME280;59834;52.124;5.422;2022-08-03T00:14:29;101555.03;;;19.61;79.19
71964;BME280;59834;52.124;5.422;2022-08-03T00:16:56;101556.13;;;19.58;79.29
71964;BME280;59834;52.124;5.422;2022-08-03T00:19:23;101554.91;;;19.52;79.65
71964;BME280;59834;52.124;5.422;2022-08-03T00:21:49;101562.03;;;19.52;79.78
71964;BME280;59834;52.124;5.422;2022-08-03T00:24:16;101554.19;;;19.50;79.47
71964;BME280;59834;52.124;5.422;2022-08-03T00:26:43;101548.31;;;19.47;80.20
71964;BME280;59834;52.124;5.422;2022-08-03T00:29:09;101551.94;;;19.46;79.84
71964;BME280;59834;52.124;5.422;2022-08-03T00:31:36;101553.91;;;19.44;80.47
71964;BME280;59834;52.124;5.422;2022-08-03T00:34:18;101556.28;;;19.47;80.20
71964;BME280;59834;52.124;5.422;2022-08-03T00:37:01;101560.75;;;19.46;79.79
71964;BME280;59834;52.124;5.422;2022-08-03T00:39:28;101556.28;;;19.47;80.13
71964;BME280;59834;52.124;5.422;2022-08-03T00:41:55;101551.25;;;19.44;80.39
71964;BME280;59834;52.124;5.422;2022-08-03T00:44:21;101555.88;;;19.42;80.11
71964;BME280;59834;52.124;5.422;2022-08-03T00:46:48;101552.34;;;19.41;80.21
71964;BME280;59834;52.124;5.422;2022-08-03T00:49:15;101548.44;;;19.36;80.09
71964;BME280;59834;52.124;5.422;2022-08-03T00:51:42;101554.03;;;19.33;80.90
71964;BME280;59834;52.124;5.422;2022-08-03T00:54:08;101555.00;;;19.31;80.62
71964;BME280;59834;52.124;5.422;2022-08-03T00:56:36;101550.53;;;19.32;80.38
71964;BME280;59834;52.124;5.422;2022-08-03T00:59:03;101547.72;;;19.34;80.26
71964;BME280;59834;52.124;5.422;2022-08-03T01:01:29;101543.41;;;19.33;79.81
71964;BME280;59834;52.124;5.422;2022-08-03T01:03:58;101541.88;;;19.30;80.00
71964;BME280;59834;52.124;5.422;2022-08-03T01:06:34;101544.50;;;19.30;79.80
71964;BME280;59834;52.124;5.422;2022-08-03T01:11:49;101538.66;;;19.26;80.35
71964;BME280;59834;52.124;5.422;2022-08-03T01:14:38;101540.84;;;19.21;81.27
71964;BME280;59834;52.124;5.422;2022-08-03T01:17:15;101534.16;;;19.17;81.04
71964;BME280;59834;52.124;5.422;2022-08-03T01:19:52;101537.34;;;19.11;81.76
71964;BME280;59834;52.124;5.422;2022-08-03T01:25:13;101536.22;;;19.04;82.33
71964;BME280;59834;52.124;5.422;2022-08-03T01:30:32;101540.25;;;18.98;82.56
71964;BME280;59834;52.124;5.422;2022-08-03T01:33:09;101538.56;;;18.97;82.72
71964;BME280;59834;52.124;5.422;2022-08-03T01:35:44;101536.06;;;18.96;82.67
71964;BME280;59834;52.124;5.422;2022-08-03T01:38:25;101533.66;;;18.93;82.90
71964;BME280;59834;52.124;5.422;2022-08-03T01:40:53;101537.44;;;18.90;82.87
71964;BME280;59834;52.124;5.422;2022-08-03T01:43:25;101536.75;;;18.88;83.35
71964;BME280;59834;52.124;5.422;2022-08-03T01:46:15;101537.84;;;18.86;83.24
71964;BME280;59834;52.124;5.422;2022-08-03T01:48:43;101537.84;;;18.86;83.12
71964;BME280;59834;52.124;5.422;2022-08-03T01:51:14;101528.19;;;18.84;82.86
71964;BME280;59834;52.124;5.422;2022-08-03T01:53:42;101530.00;;;18.84;83.68
71964;BME280;59834;52.124;5.422;2022-08-03T01:56:10;101524.13;;;18.80;83.35
71964;BME280;59834;52.124;5.422;2022-08-03T01:58:38;101516.16;;;18.80;83.08
71964;BME280;59834;52.124;5.422;2022-08-03T02:01:07;101521.63;;;18.79;83.59
71964;BME280;59834;52.124;5.422;2022-08-03T02:03:37;101527.03;;;18.77;83.73
71964;BME280;59834;52.124;5.422;2022-08-03T02:06:25;101521.31;;;18.72;83.79
71964;BME280;59834;52.124;5.422;2022-08-03T02:09:14;101523.22;;;18.70;84.18
71964;BME280;59834;52.124;5.422;2022-08-03T02:11:42;101526.13;;;18.67;83.83
71964;BME280;59834;52.124;5.422;2022-08-03T02:14:10;101521.97;;;18.65;83.93
71964;BME280;59834;52.124;5.422;2022-08-03T02:16:36;101523.06;;;18.62;84.03
71964;BME280;59834;52.124;5.422;2022-08-03T02:19:05;101527.63;;;18.60;84.20
71964;BME280;59834;52.124;5.422;2022-08-03T02:21:35;101527.91;;;18.57;84.65
71964;BME280;59834;52.124;5.422;2022-08-03T02:24:22;101532.53;;;18.55;84.61
71964;BME280;59834;52.124;5.422;2022-08-03T02:26:50;101525.53;;;18.54;84.62
71964;BME280;59834;52.124;5.422;2022-08-03T02:29:21;101524.56;;;18.55;84.46
71964;BME280;59834;52.124;5.422;2022-08-03T02:32:09;101523.44;;;18.57;84.56
71964;BME280;59834;52.124;5.422;2022-08-03T02:34:39;101523.19;;;18.60;84.46
71964;BME280;59834;52.124;5.422;2022-08-03T02:37:07;101515.47;;;18.57;83.90
71964;BME280;59834;52.124;5.422;2022-08-03T02:39:36;101512.00;;;18.57;84.17
71964;BME280;59834;52.124;5.422;2022-08-03T02:42:07;101507.53;;;18.57;83.87
71964;BME280;59834;52.124;5.422;2022-08-03T02:44:39;101509.34;;;18.57;83.63
71964;BME280;59834;52.124;5.422;2022-08-03T02:47:08;101500.56;;;18.56;83.62
71964;BME280;59834;52.124;5.422;2022-08-03T02:49:37;101501.66;;;18.54;84.08
71964;BME280;59834;52.124;5.422;2022-08-03T02:52:16;101493.13;;;18.50;83.84
71964;BME280;59834;52.124;5.422;2022-08-03T02:54:48;101498.59;;;18.49;83.94
71964;BME280;59834;52.124;5.422;2022-08-03T02:57:17;101493.53;;;18.46;83.85
71964;BME280;59834;52.124;5.422;2022-08-03T02:59:45;101500.78;;;18.44;84.10
71964;BME280;59834;52.124;5.422;2022-08-03T03:02:14;101495.75;;;18.41;84.49
71964;BME280;59834;52.124;5.422;2022-08-03T03:04:43;101488.75;;;18.40;84.27
71964;BME280;59834;52.124;5.422;2022-08-03T03:07:30;101493.34;;;18.37;84.36
71964;BME280;59834;52.124;5.422;2022-08-03T03:10:07;101493.63;;;18.34;84.42
71964;BME280;59834;52.124;5.422;2022-08-03T03:12:37;101493.06;;;18.31;84.89
71964;BME280;59834;52.124;5.422;2022-08-03T03:15:05;101487.88;;;18.29;84.77
71964;BME280;59834;52.124;5.422;2022-08-03T03:17:32;101495.13;;;18.27;84.56
71964;BME280;59834;52.124;5.422;2022-08-03T03:20:00;101497.91;;;18.26;84.66
71964;BME280;59834;52.124;5.422;2022-08-03T03:22:28;101490.94;;;18.25;85.11
71964;BME280;59834;52.124;5.422;2022-08-03T03:24:56;101502.63;;;18.22;85.37
71964;BME280;59834;52.124;5.422;2022-08-03T03:27:24;101487.56;;;18.23;84.75
71964;BME280;59834;52.124;5.422;2022-08-03T03:29:52;101488.41;;;18.23;85.09
71964;BME280;59834;52.124;5.422;2022-08-03T03:32:19;101489.50;;;18.21;85.46
71964;BME280;59834;52.124;5.422;2022-08-03T03:34:46;101484.19;;;18.21;84.53
71964;BME280;59834;52.124;5.422;2022-08-03T03:37:13;101491.31;;;18.20;84.71
71964;BME280;59834;52.124;5.422;2022-08-03T03:39:40;101495.91;;;18.18;84.61
71964;BME280;59834;52.124;5.422;2022-08-03T03:42:06;101492.44;;;18.18;84.65
71964;BME280;59834;52.124;5.422;2022-08-03T03:44:33;101496.88;;;18.17;84.76
71964;BME280;59834;52.124;5.422;2022-08-03T03:47:01;101492.56;;;18.16;84.56
71964;BME280;59834;52.124;5.422;2022-08-03T03:49:28;101487.41;;;18.14;85.13
71964;BME280;59834;52.124;5.422;2022-08-03T03:51:56;101499.78;;;18.14;85.07
71964;BME280;59834;52.124;5.422;2022-08-03T03:54:23;101493.66;;;18.13;84.77
71964;BME280;59834;52.124;5.422;2022-08-03T03:56:53;101491.97;;;18.12;85.10
71964;BME280;59834;52.124;5.422;2022-08-03T03:59:20;101492.13;;;18.11;85.10
71964;BME280;59834;52.124;5.422;2022-08-03T04:01:46;101498.38;;;18.10;85.16
71964;BME280;59834;52.124;5.422;2022-08-03T04:04:24;101495.59;;;18.11;84.75
71964;BME280;59834;52.124;5.422;2022-08-03T04:07:11;101497.28;;;18.12;85.03
71964;BME280;59834;52.124;5.422;2022-08-03T04:09:57;101493.78;;;18.12;85.06
71964;BME280;59834;52.124;5.422;2022-08-03T04:12:42;101489.47;;;18.11;84.99
71964;BME280;59834;52.124;5.422;2022-08-03T04:15:18;101498.09;;;18.13;84.78
71964;BME280;59834;52.124;5.422;2022-08-03T04:17:47;101496.19;;;18.15;84.46
71964;BME280;59834;52.124;5.422;2022-08-03T04:20:18;101495.19;;;18.16;84.52
71964;BME280;59834;52.124;5.422;2022-08-03T04:22:50;101500.81;;;18.23;84.57
71964;BME280;59834;52.124;5.422;2022-08-03T04:25:19;101494.16;;;18.28;83.93
71964;BME280;59834;52.124;5.422;2022-08-03T04:27:49;101501.84;;;18.31;83.81
71964;BME280;59834;52.124;5.422;2022-08-03T04:30:39;101503.13;;;18.37;83.34
71964;BME280;59834;52.124;5.422;2022-08-03T04:33:13;101503.44;;;18.44;83.02
71964;BME280;59834;52.124;5.422;2022-08-03T04:35:44;101503.88;;;18.49;82.99
71964;BME280;59834;52.124;5.422;2022-08-03T04:38:30;101497.50;;;18.51;83.24
71964;BME280;59834;52.124;5.422;2022-08-03T04:40:59;101498.75;;;18.57;82.83
71964;BME280;59834;52.124;5.422;2022-08-03T04:43:27;101498.78;;;18.67;82.32
71964;BME280;59834;52.124;5.422;2022-08-03T04:45:55;101494.81;;;18.72;82.42
71964;BME280;59834;52.124;5.422;2022-08-03T04:48:22;101501.44;;;18.67;82.08
71964;BME280;59834;52.124;5.422;2022-08-03T04:50:49;101507.84;;;18.64;82.38
71964;BME280;59834;52.124;5.422;2022-08-03T04:53:16;101511.78;;;18.70;82.20
71964;BME280;59834;52.124;5.422;2022-08-03T04:55:45;101499.91;;;18.95;81.58
71964;BME280;59834;52.124;5.422;2022-08-03T04:58:11;101503.88;;;20.07;77.66
71964;BME280;59834;52.124;5.422;2022-08-03T05:00:38;101509.88;;;20.93;73.79
71964;BME280;59834;52.124;5.422;2022-08-03T05:03:05;101502.34;;;21.34;71.55
71964;BME280;59834;52.124;5.422;2022-08-03T05:05:54;101511.94;;;21.00;72.81
71964;BME280;59834;52.124;5.422;2022-08-03T05:08:37;101510.59;;;20.58;74.03
71964;BME280;59834;52.124;5.422;2022-08-03T05:11:15;101506.94;;;21.14;72.76
71964;BME280;59834;52.124;5.422;2022-08-03T05:13:43;101513.00;;;21.52;71.19
71964;BME280;59834;52.124;5.422;2022-08-03T05:16:11;101524.34;;;20.81;72.78
71964;BME280;59834;52.124;5.422;2022-08-03T05:18:42;101519.19;;;21.07;72.88
71964;BME280;59834;52.124;5.422;2022-08-03T05:21:10;101522.97;;;21.68;69.73
71964;BME280;59834;52.124;5.422;2022-08-03T05:23:39;101521.63;;;21.18;71.41
71964;BME280;59834;52.124;5.422;2022-08-03T05:26:06;101520.72;;;21.10;71.63
71964;BME280;59834;52.124;5.422;2022-08-03T05:28:33;101521.44;;;21.02;71.96
71964;BME280;59834;52.124;5.422;2022-08-03T05:31:00;101522.16;;;21.22;71.09
71964;BME280;59834;52.124;5.422;2022-08-03T05:33:27;101523.81;;;21.69;69.82
71964;BME280;59834;52.124;5.422;2022-08-03T05:35:54;101527.31;;;21.87;69.05
71964;BME280;59834;52.124;5.422;2022-08-03T05:38:29;101526.84;;;21.74;69.83
71964;BME280;59834;52.124;5.422;2022-08-03T05:41:01;101528.53;;;21.57;70.16
71964;BME280;59834;52.124;5.422;2022-08-03T05:43:48;101523.06;;;22.02;69.48
71964;BME280;59834;52.124;5.422;2022-08-03T05:46:14;101523.44;;;23.44;64.48
71964;BME280;59834;52.124;5.422;2022-08-03T05:48:44;101529.06;;;24.39;61.19
71964;BME280;59834;52.124;5.422;2022-08-03T05:51:11;101526.44;;;24.23;61.09
71964;BME280;59834;52.124;5.422;2022-08-03T05:53:39;101526.19;;;24.57;60.36
71964;BME280;59834;52.124;5.422;2022-08-03T05:56:06;101520.00;;;24.57;59.86
71964;BME280;59834;52.124;5.422;2022-08-03T05:58:44;101524.97;;;24.76;59.92
71964;BME280;59834;52.124;5.422;2022-08-03T06:01:12;101520.91;;;24.88;58.91
71964;BME280;59834;52.124;5.422;2022-08-03T06:03:41;101516.25;;;25.13;58.59
71964;BME280;59834;52.124;5.422;2022-08-03T06:06:08;101516.44;;;25.58;56.89
71964;BME280;59834;52.124;5.422;2022-08-03T06:08:34;101512.13;;;25.57;57.00
71964;BME280;59834;52.124;5.422;2022-08-03T06:11:01;101518.63;;;25.39;57.48
71964;BME280;59834;52.124;5.422;2022-08-03T06:13:28;101517.34;;;25.73;56.18
71964;BME280;59834;52.124;5.422;2022-08-03T06:15:54;101522.28;;;25.61;56.94
71964;BME280;59834;52.124;5.422;2022-08-03T06:18:21;101521.00;;;25.80;56.37
71964;BME280;59834;52.124;5.422;2022-08-03T06:20:50;101518.44;;;25.87;56.09
71964;BME280;59834;52.124;5.422;2022-08-03T06:23:17;101524.38;;;25.74;56.38
71964;BME280;59834;52.124;5.422;2022-08-03T06:25:45;101526.09;;;25.67;56.97
71964;BME280;59834;52.124;5.422;2022-08-03T06:28:12;101522.00;;;25.79;56.74
71964;BME280;59834;52.124;5.422;2022-08-03T06:31:00;101526.09;;;25.67;57.89
71964;BME280;59834;52.124;5.422;2022-08-03T06:33:27;101521.94;;;25.88;56.67
71964;BME280;59834;52.124;5.422;2022-08-03T06:36:14;101519.31;;;26.02;56.42
71964;BME280;59834;52.124;5.422;2022-08-03T06:38:40;101523.38;;;25.52;56.46
71964;BME280;59834;52.124;5.422;2022-08-03T06:41:07;101518.13;;;25.36;57.17
71964;BME280;59834;52.124;5.422;2022-08-03T06:43:34;101517.66;;;25.55;57.63
71964;BME280;59834;52.124;5.422;2022-08-03T06:46:29;101523.16;;;25.39;57.88
71964;BME280;59834;52.124;5.422;2022-08-03T06:49:06;101522.09;;;24.78;59.16
71964;BME280;59834;52.124;5.422;2022-08-03T06:52:02;101517.91;;;25.46;58.41
71964;BME280;59834;52.124;5.422;2022-08-03T06:54:49;101522.13;;;25.40;57.60
71964;BME280;59834;52.124;5.422;2022-08-03T06:57:32;101519.44;;;25.09;58.25
71964;BME280;59834;52.124;5.422;2022-08-03T07:03:48;101528.56;;;24.52;60.93
71964;BME280;59834;52.124;5.422;2022-08-03T07:09:21;101540.06;;;23.22;64.70
71964;BME280;59834;52.124;5.422;2022-08-03T07:11:57;101548.34;;;22.94;66.11
71964;BME280;59834;52.124;5.422;2022-08-03T07:14:54;101547.19;;;22.71;67.41
71964;BME280;59834;52.124;5.422;2022-08-03T07:18:08;101548.88;;;22.72;67.15
71964;BME280;59834;52.124;5.422;2022-08-03T07:20:38;101540.66;;;22.99;65.67
71964;BME280;59834;52.124;5.422;2022-08-03T07:25:44;101552.09;;;23.18;65.47
71964;BME280;59834;52.124;5.422;2022-08-03T07:28:26;101559.06;;;23.11;66.07
71964;BME280;59834;52.124;5.422;2022-08-03T07:31:07;101561.19;;;23.07;66.80
71964;BME280;59834;52.124;5.422;2022-08-03T07:33:33;101564.41;;;23.11;66.17
71964;BME280;59834;52.124;5.422;2022-08-03T07:36:03;101569.22;;;23.07;66.09
71964;BME280;59834;52.124;5.422;2022-08-03T07:38:30;101569.09;;;23.17;66.00
71964;BME280;59834;52.124;5.422;2022-08-03T07:40:56;101563.78;;;23.33;65.64
71964;BME280;59834;52.124;5.422;2022-08-03T07:43:23;101554.44;;;23.29;65.31
71964;BME280;59834;52.124;5.422;2022-08-03T07:45:49;101550.47;;;23.41;65.40
71964;BME280;59834;52.124;5.422;2022-08-03T07:48:16;101563.28;;;23.29;65.49
71964;BME280;59834;52.124;5.422;2022-08-03T07:50:46;101556.41;;;23.27;65.31
71964;BME280;59834;52.124;5.422;2022-08-03T07:53:12;101556.97;;;23.47;66.09
71964;BME280;59834;52.124;5.422;2022-08-03T07:55:39;101554.50;;;23.62;64.44
71964;BME280;59834;52.124;5.422;2022-08-03T08:00:37;101551.53;;;23.73;64.42
71964;BME280;59834;52.124;5.422;2022-08-03T08:03:04;101553.34;;;23.81;63.74
71964;BME280;59834;52.124;5.422;2022-08-03T08:05:31;101542.84;;;23.87;64.25
71964;BME280;59834;52.124;5.422;2022-08-03T08:11:10;101546.84;;;23.99;63.36
71964;BME280;59834;52.124;5.422;2022-08-03T08:13:57;101552.53;;;23.80;64.69
71964;BME280;59834;52.124;5.422;2022-08-03T08:16:24;101543.34;;;23.99;63.67
71964;BME280;59834;52.124;5.422;2022-08-03T08:18:52;101546.16;;;23.97;62.93
71964;BME280;59834;52.124;5.422;2022-08-03T08:21:28;101549.84;;;24.13;64.05
71964;BME280;59834;52.124;5.422;2022-08-03T08:24:24;101545.50;;;24.28;62.47
71964;BME280;59834;52.124;5.422;2022-08-03T08:26:52;101551.00;;;24.35;61.73
71964;BME280;59834;52.124;5.422;2022-08-03T08:29:20;101550.16;;;24.26;62.50
71964;BME280;59834;52.124;5.422;2022-08-03T08:32:12;101551.50;;;24.22;62.65
71964;BME280;59834;52.124;5.422;2022-08-03T08:34:41;101553.84;;;24.17;63.49
71964;BME280;59834;52.124;5.422;2022-08-03T08:37:10;101552.47;;;24.37;61.92
71964;BME280;59834;52.124;5.422;2022-08-03T08:39:37;101558.00;;;24.44;62.14
71964;BME280;59834;52.124;5.422;2022-08-03T08:42:04;101551.75;;;24.68;61.51
71964;BME280;59834;52.124;5.422;2022-08-03T08:44:30;101555.44;;;24.75;61.03
71964;BME280;59834;52.124;5.422;2022-08-03T08:47:01;101553.19;;;24.87;60.72
71964;BME280;59834;52.124;5.422;2022-08-03T08:49:28;101564.91;;;24.86;61.27
71964;BME280;59834;52.124;5.422;2022-08-03T08:51:56;101554.47;;;24.99;60.72
71964;BME280;59834;52.124;5.422;2022-08-03T08:54:27;101557.94;;;25.16;60.22
71964;BME280;59834;52.124;5.422;2022-08-03T08:56:55;101564.03;;;25.33;59.06
71964;BME280;59834;52.124;5.422;2022-08-03T08:59:24;101561.00;;;25.36;58.84
71964;BME280;59834;52.124;5.422;2022-08-03T09:02:12;101568.09;;;25.52;58.41
71964;BME280;59834;52.124;5.422;2022-08-03T09:04:39;101559.88;;;25.53;56.91
71964;BME280;59834;52.124;5.422;2022-08-03T09:07:06;101559.56;;;25.48;57.70
71964;BME280;59834;52.124;5.422;2022-08-03T09:09:49;101557.63;;;25.65;57.63
71964;BME280;59834;52.124;5.422;2022-08-03T09:12:49;101557.13;;;25.61;56.96
71964;BME280;59834;52.124;5.422;2022-08-03T09:15:23;101553.34;;;25.56;55.66
71964;BME280;59834;52.124;5.422;2022-08-03T09:17:56;101556.25;;;25.46;56.45
71964;BME280;59834;52.124;5.422;2022-08-03T09:21:26;101554.28;;;25.63;57.13
71964;BME280;59834;52.124;5.422;2022-08-03T09:24:01;101556.63;;;25.66;56.22
71964;BME280;59834;52.124;5.422;2022-08-03T09:27:09;101556.66;;;25.58;56.28
71964;BME280;59834;52.124;5.422;2022-08-03T09:29:41;101561.44;;;25.48;56.53
71964;BME280;59834;52.124;5.422;2022-08-03T09:32:11;101553.13;;;25.34;57.51
71964;BME280;59834;52.124;5.422;2022-08-03T09:34:41;101557.38;;;25.29;57.75
71964;BME280;59834;52.124;5.422;2022-08-03T09:37:23;101560.81;;;25.37;57.83
71964;BME280;59834;52.124;5.422;2022-08-03T09:40:33;101560.25;;;25.73;56.92
71964;BME280;59834;52.124;5.422;2022-08-03T09:43:01;101553.09;;;25.89;56.65
71964;BME280;59834;52.124;5.422;2022-08-03T09:45:29;101564.50;;;25.91;55.88
71964;BME280;59834;52.124;5.422;2022-08-03T09:51:52;101554.44;;;25.93;56.39
71964;BME280;59834;52.124;5.422;2022-08-03T09:54:41;101555.94;;;26.10;56.11
71964;BME280;59834;52.124;5.422;2022-08-03T09:57:31;101549.69;;;26.32;55.74
71964;BME280;59834;52.124;5.422;2022-08-03T10:00:13;101544.97;;;26.34;54.88
71964;BME280;59834;52.124;5.422;2022-08-03T10:02:42;101549.22;;;26.44;55.35
71964;BME280;59834;52.124;5.422;2022-08-03T10:05:39;101549.97;;;26.38;55.03
71964;BME280;59834;52.124;5.422;2022-08-03T10:08:17;101551.72;;;26.45;53.97
71964;BME280;59834;52.124;5.422;2022-08-03T10:10:48;101552.22;;;26.49;53.58
71964;BME280;59834;52.124;5.422;2022-08-03T10:13:24;101555.44;;;26.59;52.72
71964;BME280;59834;52.124;5.422;2022-08-03T10:15:53;101551.47;;;26.55;54.19
71964;BME280;59834;52.124;5.422;2022-08-03T10:18:41;101562.31;;;26.62;53.30
71964;BME280;59834;52.124;5.422;2022-08-03T10:21:15;101560.91;;;26.66;52.44
71964;BME280;59834;52.124;5.422;2022-08-03T10:24:06;101557.84;;;26.69;52.87
71964;BME280;59834;52.124;5.422;2022-08-03T10:26:58;101550.97;;;26.96;51.98
71964;BME280;59834;52.124;5.422;2022-08-03T10:29:42;101549.97;;;26.97;52.48
71964;BME280;59834;52.124;5.422;2022-08-03T10:36:44;101554.84;;;27.08;50.84
71964;BME280;59834;52.124;5.422;2022-08-03T10:48:41;101539.56;;;27.23;50.65
71964;BME280;59834;52.124;5.422;2022-08-03T10:51:41;101540.91;;;27.34;50.69
71964;BME280;59834;52.124;5.422;2022-08-03T11:09:57;101528.56;;;27.83;47.22
71964;BME280;59834;52.124;5.422;2022-08-03T11:12:27;101531.53;;;27.73;47.15
71964;BME280;59834;52.124;5.422;2022-08-03T11:15:07;101525.09;;;27.67;48.14
71964;BME280;59834;52.124;5.422;2022-08-03T11:17:35;101528.94;;;27.80;47.52
71964;BME280;59834;52.124;5.422;2022-08-03T11:20:47;101523.47;;;27.94;47.72
71964;BME280;59834;52.124;5.422;2022-08-03T11:23:16;101523.28;;;27.96;48.17
71964;BME280;59834;52.124;5.422;2022-08-03T11:26:14;101522.38;;;28.10;47.87
71964;BME280;59834;52.124;5.422;2022-08-03T11:28:43;101520.38;;;28.26;46.46
71964;BME280;59834;52.124;5.422;2022-08-03T11:34:12;101524.41;;;28.08;44.94
71964;BME280;59834;52.124;5.422;2022-08-03T11:39:45;101532.38;;;28.23;45.00
71964;BME280;59834;52.124;5.422;2022-08-03T11:44:54;101516.25;;;28.30;44.23
71964;BME280;59834;52.124;5.422;2022-08-03T11:47:21;101516.44;;;28.22;45.13
71964;BME280;59834;52.124;5.422;2022-08-03T11:49:50;101532.66;;;28.35;46.04
71964;BME280;59834;52.124;5.422;2022-08-03T11:52:19;101521.59;;;28.51;45.92
71964;BME280;59834;52.124;5.422;2022-08-03T11:54:53;101512.47;;;28.52;42.67
71964;BME280;59834;52.124;5.422;2022-08-03T11:57:30;101517.66;;;28.54;43.08
71964;BME280;59834;52.124;5.422;2022-08-03T12:00:19;101517.13;;;28.72;43.24
71964;BME280;59834;52.124;5.422;2022-08-03T12:02:54;101513.66;;;28.78;43.95
71964;BME280;59834;52.124;5.422;2022-08-03T12:05:31;101522.03;;;28.55;44.10
71964;BME280;59834;52.124;5.422;2022-08-03T12:07:58;101519.44;;;28.75;43.25
71964;BME280;59834;52.124;5.422;2022-08-03T12:10:31;101520.69;;;28.79;43.22
71964;BME280;59834;52.124;5.422;2022-08-03T12:12:59;101518.03;;;28.92;42.96
71964;BME280;59834;52.124;5.422;2022-08-03T12:15:28;101516.97;;;28.86;42.48
71964;BME280;59834;52.124;5.422;2022-08-03T12:17:55;101514.69;;;28.83;42.45
71964;BME280;59834;52.124;5.422;2022-08-03T12:20:28;101522.78;;;28.90;42.51
71964;BME280;59834;52.124;5.422;2022-08-03T12:23:05;101509.16;;;28.98;41.96
71964;BME280;59834;52.124;5.422;2022-08-03T12:25:32;101512.72;;;29.05;41.51
71964;BME280;59834;52.124;5.422;2022-08-03T12:28:16;101521.84;;;29.04;42.50
71964;BME280;59834;52.124;5.422;2022-08-03T12:31:07;101507.75;;;29.09;41.79
71964;BME280;59834;52.124;5.422;2022-08-03T12:34:00;101508.41;;;29.11;42.72
71964;BME280;59834;52.124;5.422;2022-08-03T12:36:32;101511.28;;;29.16;41.74
71964;BME280;59834;52.124;5.422;2022-08-03T12:39:03;101514.81;;;29.17;40.98
71964;BME280;59834;52.124;5.422;2022-08-03T12:41:36;101513.78;;;29.11;40.86
71964;BME280;59834;52.124;5.422;2022-08-03T12:44:05;101514.84;;;29.23;41.16
71964;BME280;59834;52.124;5.422;2022-08-03T12:51:55;101510.72;;;29.41;41.93
71964;BME280;59834;52.124;5.422;2022-08-03T12:54:25;101515.97;;;29.62;40.68
71964;BME280;59834;52.124;5.422;2022-08-03T12:57:02;101513.41;;;29.54;41.71
71964;BME280;59834;52.124;5.422;2022-08-03T12:59:41;101513.25;;;29.62;41.80
71964;BME280;59834;52.124;5.422;2022-08-03T13:04:50;101512.63;;;29.87;41.96
71964;BME280;59834;52.124;5.422;2022-08-03T13:07:18;101506.59;;;29.84;41.68
71964;BME280;59834;52.124;5.422;2022-08-03T13:09:50;101507.03;;;29.68;42.07
71964;BME280;59834;52.124;5.422;2022-08-03T13:12:26;101506.00;;;29.76;42.05
71964;BME280;59834;52.124;5.422;2022-08-03T13:14:55;101502.66;;;29.87;42.34
71964;BME280;59834;52.124;5.422;2022-08-03T13:17:22;101506.59;;;29.84;42.33
71964;BME280;59834;52.124;5.422;2022-08-03T13:19:49;101507.44;;;29.92;42.28
71964;BME280;59834;52.124;5.422;2022-08-03T13:24:49;101515.13;;;30.01;42.50
71964;BME280;59834;52.124;5.422;2022-08-03T13:27:16;101508.88;;;29.94;42.09
71964;BME280;59834;52.124;5.422;2022-08-03T13:30:03;101510.56;;;29.82;43.35
71964;BME280;59834;52.124;5.422;2022-08-03T13:32:30;101509.94;;;29.80;42.52
71964;BME280;59834;52.124;5.422;2022-08-03T13:34:56;101508.28;;;29.86;42.85
71964;BME280;59834;52.124;5.422;2022-08-03T13:37:23;101512.63;;;29.80;43.11
71964;BME280;59834;52.124;5.422;2022-08-03T13:39:51;101512.44;;;29.75;43.57
71964;BME280;59834;52.124;5.422;2022-08-03T13:42:25;101510.16;;;29.85;43.17
71964;BME280;59834;52.124;5.422;2022-08-03T13:44:52;101508.69;;;30.02;42.98
71964;BME280;59834;52.124;5.422;2022-08-03T13:47:19;101507.66;;;29.83;43.20
71964;BME280;59834;52.124;5.422;2022-08-03T13:49:46;101512.81;;;29.58;44.27
71964;BME280;59834;52.124;5.422;2022-08-03T13:52:31;101509.75;;;29.75;44.08
71964;BME280;59834;52.124;5.422;2022-08-03T13:55:03;101506.00;;;29.89;43.27
71964;BME280;59834;52.124;5.422;2022-08-03T13:57:30;101513.47;;;29.74;43.07
71964;BME280;59834;52.124;5.422;2022-08-03T14:00:17;101507.84;;;29.55;43.80
71964;BME280;59834;52.124;5.422;2022-08-03T14:02:55;101507.88;;;29.69;44.56
71964;BME280;59834;52.124;5.422;2022-08-03T14:05:30;101505.16;;;29.82;43.76
71964;BME280;59834;52.124;5.422;2022-08-03T14:07:58;101509.50;;;29.90;44.03
71964;BME280;59834;52.124;5.422;2022-08-03T14:10:29;101502.22;;;30.03;43.45
71964;BME280;59834;52.124;5.422;2022-08-03T14:12:56;101505.34;;;30.07;43.71
71964;BME280;59834;52.124;5.422;2022-08-03T14:15:25;101508.03;;;30.00;43.62
71964;BME280;59834;52.124;5.422;2022-08-03T14:17:54;101495.19;;;30.02;43.76
71964;BME280;59834;52.124;5.422;2022-08-03T14:20:24;101491.66;;;30.09;43.05
71964;BME280;59834;52.124;5.422;2022-08-03T14:23:05;101483.94;;;30.12;42.91
71964;BME280;59834;52.124;5.422;2022-08-03T14:25:32;101489.78;;;29.89;43.37
71964;BME280;59834;52.124;5.422;2022-08-03T14:28:19;101482.28;;;30.04;43.24
71964;BME280;59834;52.124;5.422;2022-08-03T14:30:45;101479.41;;;29.86;43.45
71964;BME280;59834;52.124;5.422;2022-08-03T14:33:13;101476.31;;;29.82;43.61
71964;BME280;59834;52.124;5.422;2022-08-03T14:35:39;101484.41;;;29.76;44.15
71964;BME280;59834;52.124;5.422;2022-08-03T14:38:06;101491.47;;;29.77;43.81